Time;durP1;ratioP1;P1;durP2;ratioP2;P2;SDS_P1;SDS_P2;PMS_P1;PMS_P2;Temp;Humidity;BMP_temperature;BMP_pressure;BME280_temperature;BME280_humidity;BME280_pressure;Samples;Min_cycle;Max_cycle;Signal;HPM_P1;HPM_P2
2024/01/31 00:01:44;;;;;;;5.32;0.70;;;5.60;99.90;;;;;;5090439;28;20035;-67
2024/01/31 00:04:09;;;;;;;5.28;0.52;;;5.60;99.90;;;;;;5087699;28;20040;-67
2024/01/31 00:06:35;;;;;;;6.50;0.75;;;5.60;99.90;;;;;;5120769;27;20113;-67
2024/01/31 00:09:01;;;;;;;6.00;0.50;;;5.60;99.90;;;;;;5089170;28;20141;-67
2024/01/31 00:11:29;;;;;;;10.05;1.00;;;5.50;99.90;;;;;;5084629;28;20128;-67
2024/01/31 00:13:58;;;;;;;8.60;0.80;;;5.50;99.90;;;;;;5087794;28;20035;-67
2024/01/31 00:16:24;;;;;;;5.60;0.73;;;5.60;99.90;;;;;;5089662;28;20081;-67
2024/01/31 00:18:52;;;;;;;6.63;0.80;;;5.50;99.90;;;;;;5089777;28;20579;-67
2024/01/31 00:21:17;;;;;;;8.25;0.70;;;5.60;99.90;;;;;;5122690;27;20035;-67
2024/01/31 00:23:44;;;;;;;3.28;0.50;;;5.60;99.90;;;;;;5088961;28;20039;-67
2024/01/31 00:26:09;;;;;;;7.40;1.05;;;5.50;99.90;;;;;;5086641;28;20037;-67
2024/01/31 00:28:35;;;;;;;5.43;0.57;;;5.60;99.90;;;;;;5088998;28;20474;-67
2024/01/31 00:31:00;;;;;;;5.95;1.10;;;5.50;99.90;;;;;;5086321;28;20097;-67
2024/01/31 00:33:26;;;;;;;5.03;0.60;;;5.50;99.90;;;;;;5085164;28;20047;-67
2024/01/31 00:35:53;;;;;;;6.60;1.17;;;5.50;99.90;;;;;;5091983;28;20039;-67
2024/01/31 00:38:18;;;;;;;7.72;0.90;;;5.50;99.90;;;;;;5090287;28;20040;-67
2024/01/31 00:40:44;;;;;;;8.52;1.70;;;5.60;99.90;;;;;;5087701;28;20471;-67
2024/01/31 00:43:10;;;;;;;6.82;0.73;;;5.50;99.90;;;;;;5089788;28;20467;-67
2024/01/31 00:45:35;;;;;;;5.85;0.57;;;5.50;99.90;;;;;;5085194;28;20470;-67
2024/01/31 00:48:02;;;;;;;3.10;0.63;;;5.50;99.90;;;;;;5087586;28;20100;-67
2024/01/31 00:50:27;;;;;;;5.78;0.60;;;5.50;99.90;;;;;;5082565;28;20036;-67
2024/01/31 00:52:53;;;;;;;6.75;0.98;;;5.50;99.90;;;;;;5090897;28;20421;-67
2024/01/31 00:55:19;;;;;;;3.92;0.57;;;5.50;99.90;;;;;;5086097;28;20043;-67
2024/01/31 00:57:46;;;;;;;4.35;0.50;;;5.50;99.90;;;;;;5089070;28;20040;-67
2024/01/31 01:00:12;;;;;;;5.85;1.23;;;5.50;99.90;;;;;;5082866;28;20047;-66
2024/01/31 01:02:40;;;;;;;10.07;0.95;;;5.50;99.90;;;;;;5071566;28;20047;-67
2024/01/31 01:05:10;;;;;;;3.53;0.65;;;5.50;99.90;;;;;;5088356;28;20051;-67
2024/01/31 01:07:39;;;;;;;5.70;0.70;;;5.50;99.90;;;;;;5102865;27;20040;-67
2024/01/31 01:10:06;;;;;;;3.65;0.73;;;5.50;99.90;;;;;;5089683;28;20040;-67
2024/01/31 01:12:32;;;;;;;4.45;0.88;;;5.50;99.90;;;;;;5083987;28;20054;-66
2024/01/31 01:14:57;;;;;;;2.88;0.45;;;5.50;99.90;;;;;;5092468;28;20043;-67
2024/01/31 01:17:23;;;;;;;3.85;0.70;;;5.50;99.90;;;;;;5085473;28;20394;-67
2024/01/31 01:19:49;;;;;;;2.00;0.40;;;5.50;99.90;;;;;;5088512;28;20067;-67
2024/01/31 01:22:14;;;;;;;4.53;0.60;;;5.50;99.90;;;;;;5084714;28;20037;-67
2024/01/31 01:24:40;;;;;;;3.25;0.40;;;5.50;99.90;;;;;;5087507;28;20577;-67
2024/01/31 01:27:05;;;;;;;6.55;0.80;;;5.50;99.90;;;;;;5086941;28;20047;-67
2024/01/31 01:29:31;;;;;;;3.90;0.77;;;5.50;99.90;;;;;;5081755;28;20048;-67
2024/01/31 01:31:57;;;;;;;5.70;1.08;;;5.50;99.90;;;;;;5087014;28;20028;-67
2024/01/31 01:34:22;;;;;;;8.75;0.82;;;5.40;99.90;;;;;;5085484;28;20036;-66
2024/01/31 01:36:48;;;;;;;5.80;0.68;;;5.40;99.90;;;;;;5085386;28;20040;-67
2024/01/31 01:39:13;;;;;;;4.65;0.50;;;5.40;99.90;;;;;;5088851;28;20134;-67
2024/01/31 01:41:39;;;;;;;3.28;0.50;;;5.50;99.90;;;;;;5086002;28;20071;-67
2024/01/31 01:44:05;;;;;;;4.57;0.68;;;5.50;99.90;;;;;;5083503;28;20079;-67
2024/01/31 01:46:34;;;;;;;6.05;1.15;;;5.40;99.90;;;;;;5081089;28;20048;-67
2024/01/31 01:49:00;;;;;;;6.13;0.60;;;5.40;99.90;;;;;;5114130;27;20055;-67
2024/01/31 01:51:27;;;;;;;4.22;0.32;;;5.40;99.90;;;;;;5086220;28;20044;-67
2024/01/31 01:53:52;;;;;;;6.13;0.40;;;5.40;99.90;;;;;;5073374;28;20044;-67
2024/01/31 01:56:19;;;;;;;7.05;0.63;;;5.40;99.90;;;;;;5087623;28;20445;-67
2024/01/31 01:58:48;;;;;;;4.70;0.40;;;5.40;99.90;;;;;;5090700;28;20051;-67
2024/01/31 02:01:14;;;;;;;2.85;0.40;;;5.40;99.90;;;;;;5083481;28;20051;-67
2024/01/31 02:03:41;;;;;;;3.42;0.40;;;5.40;99.90;;;;;;5085239;28;20051;-67
2024/01/31 02:06:06;;;;;;;5.47;0.40;;;5.40;99.90;;;;;;5083366;28;20052;-67
2024/01/31 02:08:32;;;;;;;4.75;0.35;;;5.40;99.90;;;;;;5118094;27;20047;-67
2024/01/31 02:10:58;;;;;;;7.22;1.50;;;5.40;99.90;;;;;;5085784;28;20153;-67
2024/01/31 02:13:23;;;;;;;6.60;1.02;;;5.40;99.90;;;;;;5084967;28;20040;-67
2024/01/31 02:15:53;;;;;;;4.97;0.93;;;5.40;99.90;;;;;;5118405;27;20401;-67
2024/01/31 02:18:20;;;;;;;4.75;0.35;;;5.40;99.90;;;;;;5094298;28;20039;-67
2024/01/31 02:20:46;;;;;;;2.42;0.50;;;5.40;99.90;;;;;;5089817;28;20044;-67
2024/01/31 02:23:12;;;;;;;4.70;0.50;;;5.40;99.90;;;;;;5086117;28;20493;-68
2024/01/31 02:25:37;;;;;;;4.50;0.40;;;5.40;99.90;;;;;;5075724;28;20051;-67
2024/01/31 02:28:03;;;;;;;6.40;0.60;;;5.40;99.90;;;;;;5084500;28;20049;-67
2024/01/31 02:30:29;;;;;;;3.30;0.32;;;5.30;99.90;;;;;;5085863;28;20048;-67
2024/01/31 02:32:56;;;;;;;5.18;0.30;;;5.30;99.90;;;;;;5082604;28;20098;-67
2024/01/31 02:35:22;;;;;;;3.47;0.38;;;5.30;99.90;;;;;;5113727;27;20048;-67
2024/01/31 02:37:48;;;;;;;2.15;0.20;;;5.30;99.90;;;;;;5118323;27;20043;-67
2024/01/31 02:40:14;;;;;;;6.30;0.70;;;5.20;99.90;;;;;;5083070;28;20051;-67
2024/01/31 02:42:40;;;;;;;3.63;0.30;;;5.20;99.90;;;;;;5085804;28;20071;-67
2024/01/31 02:45:06;;;;;;;4.85;0.30;;;5.20;99.90;;;;;;5086088;28;20469;-67
2024/01/31 02:47:33;;;;;;;3.40;0.60;;;5.10;99.90;;;;;;5117596;27;20051;-67
2024/01/31 02:50:00;;;;;;;3.22;0.30;;;5.10;99.90;;;;;;5084874;28;20132;-67
2024/01/31 02:52:25;;;;;;;5.13;0.22;;;5.10;99.90;;;;;;5088259;28;20055;-67
2024/01/31 02:54:51;;;;;;;3.78;0.30;;;5.00;99.90;;;;;;5088904;28;20040;-67
2024/01/31 02:57:18;;;;;;;3.25;0.70;;;5.00;99.90;;;;;;5089448;28;20502;-67
2024/01/31 02:59:43;;;;;;;4.40;0.40;;;5.10;99.90;;;;;;5114687;27;20128;-67
2024/01/31 03:02:09;;;;;;;5.50;0.60;;;5.00;99.90;;;;;;5114104;27;20672;-67
2024/01/31 03:04:34;;;;;;;3.95;0.88;;;5.00;99.90;;;;;;5087883;28;20080;-67
2024/01/31 03:07:00;;;;;;;8.70;0.50;;;5.10;99.90;;;;;;5085243;28;20123;-67
2024/01/31 03:09:27;;;;;;;2.60;0.30;;;5.10;99.90;;;;;;5088871;28;20090;-67
2024/01/31 03:11:53;;;;;;;2.30;0.20;;;5.10;99.90;;;;;;5087713;28;20099;-67
2024/01/31 03:14:19;;;;;;;4.50;0.40;;;5.10;99.90;;;;;;5092047;28;20493;-67
2024/01/31 03:16:45;;;;;;;3.47;0.35;;;5.10;99.90;;;;;;5075707;28;20119;-67
2024/01/31 03:19:10;;;;;;;5.90;0.60;;;5.10;99.90;;;;;;5091218;28;20085;-67
2024/01/31 03:21:36;;;;;;;3.72;0.40;;;5.10;99.90;;;;;;5092868;28;20123;-67
2024/01/31 03:24:02;;;;;;;5.47;0.40;;;5.10;99.90;;;;;;5091827;28;20067;-67
2024/01/31 03:26:28;;;;;;;6.70;1.83;;;5.10;99.90;;;;;;5090056;28;20483;-67
2024/01/31 03:28:54;;;;;;;3.45;0.30;;;5.10;99.90;;;;;;5093861;28;20032;-67
2024/01/31 03:31:20;;;;;;;4.63;0.40;;;5.10;99.90;;;;;;5084985;28;20032;-67
2024/01/31 03:33:45;;;;;;;3.05;0.52;;;5.10;99.90;;;;;;5094989;28;20097;-67
2024/01/31 03:36:12;;;;;;;3.67;0.43;;;5.10;99.90;;;;;;5085972;28;20115;-67
2024/01/31 03:38:38;;;;;;;3.90;0.60;;;5.10;99.90;;;;;;5086961;28;20042;-67
2024/01/31 03:41:08;;;;;;;5.40;0.68;;;5.10;99.90;;;;;;5088642;28;20132;-67
2024/01/31 03:43:33;;;;;;;6.10;1.75;;;5.10;99.90;;;;;;5085108;28;20126;-67
2024/01/31 03:46:01;;;;;;;1.75;0.25;;;5.20;99.90;;;;;;5085964;28;20566;-67
2024/01/31 03:48:28;;;;;;;4.07;0.93;;;5.10;99.90;;;;;;5092613;28;20040;-67
2024/01/31 03:50:54;;;;;;;7.90;0.77;;;5.10;99.90;;;;;;5088110;28;20048;-67
2024/01/31 03:53:19;;;;;;;2.72;0.38;;;5.10;99.90;;;;;;5088566;28;20055;-67
2024/01/31 03:55:46;;;;;;;5.70;0.57;;;5.10;99.90;;;;;;5120701;27;20036;-67
2024/01/31 03:58:11;;;;;;;1.45;0.20;;;5.10;99.90;;;;;;5094661;28;20080;-67
2024/01/31 04:00:37;;;;;;;1.15;0.10;;;5.00;99.90;;;;;;5088952;28;20509;-67
2024/01/31 04:03:03;;;;;;;1.92;0.28;;;5.10;99.90;;;;;;5087698;28;20123;-67
2024/01/31 04:05:28;;;;;;;4.25;0.60;;;5.00;99.90;;;;;;5091608;28;20482;-67
2024/01/31 04:07:55;;;;;;;5.40;0.47;;;5.00;99.90;;;;;;5081978;28;20539;-67
2024/01/31 04:10:20;;;;;;;3.60;0.30;;;5.00;99.90;;;;;;5088864;28;20044;-67
2024/01/31 04:12:47;;;;;;;8.13;0.70;;;5.00;99.90;;;;;;5088119;28;20168;-67
2024/01/31 04:15:13;;;;;;;4.32;0.63;;;5.00;99.90;;;;;;5086814;28;20066;-67
2024/01/31 04:17:39;;;;;;;6.40;0.52;;;5.00;99.90;;;;;;5089389;28;20040;-67
2024/01/31 04:20:06;;;;;;;5.30;0.60;;;5.00;99.90;;;;;;5091297;28;20043;-67
2024/01/31 04:22:32;;;;;;;3.72;0.50;;;5.00;99.90;;;;;;5085862;28;20506;-67
2024/01/31 04:24:57;;;;;;;6.88;0.70;;;5.00;99.90;;;;;;5085752;28;20389;-67
2024/01/31 04:27:23;;;;;;;2.88;0.45;;;5.00;99.90;;;;;;5089760;28;20050;-67
2024/01/31 04:29:49;;;;;;;6.57;0.50;;;5.00;99.90;;;;;;5092933;28;20503;-67
2024/01/31 04:32:14;;;;;;;2.50;0.43;;;5.00;99.90;;;;;;5100277;27;20123;-67
2024/01/31 04:34:41;;;;;;;3.25;0.30;;;5.00;99.90;;;;;;5085886;28;20044;-67
2024/01/31 04:37:06;;;;;;;4.25;0.50;;;5.00;99.90;;;;;;5090193;28;20442;-67
2024/01/31 04:39:32;;;;;;;4.63;0.30;;;4.90;99.90;;;;;;5084621;28;20064;-67
2024/01/31 04:41:59;;;;;;;5.28;0.38;;;4.90;99.90;;;;;;5118045;27;20044;-67
2024/01/31 04:44:25;;;;;;;6.53;0.38;;;4.90;99.90;;;;;;5120693;27;20040;-66
2024/01/31 04:46:51;;;;;;;3.75;0.40;;;4.80;99.90;;;;;;5088885;28;20046;-67
2024/01/31 04:49:16;;;;;;;2.20;0.30;;;4.80;99.90;;;;;;5087140;28;20036;-67
2024/01/31 04:51:42;;;;;;;3.28;0.40;;;4.80;99.90;;;;;;5086177;28;20055;-67
2024/01/31 04:54:08;;;;;;;2.65;0.20;;;4.70;99.90;;;;;;5086756;28;20048;-67
2024/01/31 04:56:36;;;;;;;1.85;0.40;;;4.70;99.90;;;;;;5086368;28;20040;-67
2024/01/31 04:59:01;;;;;;;3.15;0.20;;;4.70;99.90;;;;;;5116967;27;20039;-67
2024/01/31 05:01:27;;;;;;;2.58;0.25;;;4.60;99.90;;;;;;5086317;28;20039;-67
2024/01/31 05:03:53;;;;;;;2.42;0.40;;;4.60;99.90;;;;;;5086973;28;20044;-67
2024/01/31 05:06:19;;;;;;;4.38;1.27;;;4.50;99.90;;;;;;5083354;28;20036;-67
2024/01/31 05:08:45;;;;;;;4.15;0.40;;;4.50;99.90;;;;;;5082598;28;20071;-67
2024/01/31 05:11:13;;;;;;;3.90;0.28;;;4.40;99.90;;;;;;5112832;27;20454;-67
2024/01/31 05:13:39;;;;;;;1.75;0.20;;;4.50;99.90;;;;;;5079618;28;20071;-67
2024/01/31 05:16:08;;;;;;;3.65;0.50;;;4.40;99.90;;;;;;5088193;28;20036;-67
2024/01/31 05:18:34;;;;;;;4.03;0.30;;;4.40;99.90;;;;;;5117522;27;20059;-67
2024/01/31 05:21:00;;;;;;;4.65;0.30;;;4.40;99.90;;;;;;5064973;28;20039;-67
2024/01/31 05:23:26;;;;;;;3.95;0.30;;;4.40;99.90;;;;;;5081514;28;20059;-67
2024/01/31 05:25:52;;;;;;;5.93;0.52;;;4.40;99.90;;;;;;5080304;28;20040;-67
2024/01/31 05:28:18;;;;;;;3.45;0.38;;;4.40;99.90;;;;;;5081678;28;20036;-67
2024/01/31 05:30:43;;;;;;;3.40;0.55;;;4.40;99.90;;;;;;5115488;27;20051;-67
2024/01/31 05:33:09;;;;;;;6.55;0.50;;;4.40;99.90;;;;;;5081929;28;20443;-67
2024/01/31 05:35:36;;;;;;;3.72;0.40;;;4.40;99.90;;;;;;5080814;28;20040;-66
2024/01/31 05:38:03;;;;;;;3.70;0.40;;;4.40;99.90;;;;;;5081060;28;20040;-67
2024/01/31 05:40:29;;;;;;;6.53;0.63;;;4.40;99.90;;;;;;5075695;28;20124;-67
2024/01/31 05:42:56;;;;;;;6.13;0.32;;;4.40;99.90;;;;;;5112205;27;20048;-67
2024/01/31 05:45:22;;;;;;;3.92;0.50;;;4.50;99.90;;;;;;5081461;28;20056;-66
2024/01/31 05:47:47;;;;;;;6.38;0.50;;;4.50;99.90;;;;;;5108200;27;20059;-66
2024/01/31 05:50:13;;;;;;;3.85;0.95;;;4.60;99.90;;;;;;5080173;28;20115;-66
2024/01/31 05:52:39;;;;;;;7.38;0.52;;;4.60;99.90;;;;;;5114466;27;20043;-66
2024/01/31 05:55:04;;;;;;;3.22;0.50;;;4.60;99.90;;;;;;5086382;28;20036;-66
2024/01/31 05:57:30;;;;;;;7.20;0.60;;;4.60;99.90;;;;;;5079751;28;20036;-66
2024/01/31 05:59:56;;;;;;;3.60;0.70;;;4.70;99.90;;;;;;5087079;28;20444;-67
2024/01/31 06:02:21;;;;;;;3.83;0.60;;;4.70;99.90;;;;;;5115327;27;20036;-67
2024/01/31 06:04:47;;;;;;;3.30;0.52;;;4.70;99.90;;;;;;5079793;28;20498;-67
2024/01/31 06:07:13;;;;;;;3.35;0.77;;;4.80;99.90;;;;;;5081014;28;20084;-67
2024/01/31 06:09:39;;;;;;;4.13;0.52;;;4.70;99.90;;;;;;5080105;28;20496;-67
2024/01/31 06:12:08;;;;;;;2.20;0.55;;;4.80;99.90;;;;;;5083608;28;20400;-66
2024/01/31 06:14:37;;;;;;;4.47;0.50;;;4.80;99.90;;;;;;5082722;28;20045;-67
2024/01/31 06:17:03;;;;;;;4.25;0.80;;;4.90;99.90;;;;;;5083405;28;20036;-67
2024/01/31 06:19:29;;;;;;;4.00;0.60;;;4.90;99.90;;;;;;5083110;28;20047;-67
2024/01/31 06:21:55;;;;;;;3.17;0.50;;;4.90;99.90;;;;;;5078154;28;20036;-67
2024/01/31 06:24:21;;;;;;;3.83;0.70;;;4.90;99.90;;;;;;5081258;28;20097;-67
2024/01/31 06:26:47;;;;;;;6.30;1.05;;;4.90;99.90;;;;;;5080868;28;20040;-67
2024/01/31 06:29:17;;;;;;;7.00;1.00;;;4.90;99.90;;;;;;5080443;28;20047;-67
2024/01/31 06:31:47;;;;;;;5.03;0.50;;;4.90;99.90;;;;;;5084972;28;20363;-67
2024/01/31 06:34:14;;;;;;;8.52;0.80;;;4.90;99.90;;;;;;5080089;28;20387;-67
2024/01/31 06:36:41;;;;;;;4.18;0.60;;;4.90;99.90;;;;;;5076662;28;20043;-67
2024/01/31 06:39:06;;;;;;;4.45;1.60;;;5.00;99.90;;;;;;5078687;28;20111;-67
2024/01/31 06:41:34;;;;;;;9.60;1.05;;;5.00;99.90;;;;;;5079420;28;20178;-67
2024/01/31 06:44:00;;;;;;;9.85;0.90;;;4.90;99.90;;;;;;5077831;28;20082;-67
2024/01/31 06:46:26;;;;;;;6.70;0.80;;;5.00;99.90;;;;;;5077106;28;20036;-66
2024/01/31 06:48:51;;;;;;;4.35;0.70;;;5.00;99.90;;;;;;5079363;28;20043;-67
2024/01/31 06:51:17;;;;;;;5.80;1.00;;;5.00;99.90;;;;;;5112842;27;20826;-67
2024/01/31 06:53:44;;;;;;;3.22;1.00;;;4.90;99.90;;;;;;5107956;27;20036;-67
2024/01/31 06:56:16;;;;;;;5.68;0.57;;;5.00;99.90;;;;;;5078014;28;20927;-67
2024/01/31 06:58:43;;;;;;;4.53;0.57;;;5.00;99.90;;;;;;5072825;28;20048;-67
2024/01/31 07:01:09;;;;;;;4.25;0.70;;;5.00;99.90;;;;;;5069547;28;20048;-67
2024/01/31 07:03:34;;;;;;;4.75;0.93;;;4.90;99.90;;;;;;5079722;28;20043;-67
2024/01/31 07:06:00;;;;;;;6.32;0.85;;;5.00;99.90;;;;;;5078717;28;20039;-67
2024/01/31 07:08:26;;;;;;;5.82;0.57;;;5.00;99.90;;;;;;5078895;28;20433;-67
2024/01/31 07:10:51;;;;;;;4.38;0.52;;;5.10;99.90;;;;;;5073117;28;20043;-66
2024/01/31 07:13:17;;;;;;;6.65;0.73;;;5.00;99.90;;;;;;5108729;28;20032;-67
2024/01/31 07:15:42;;;;;;;6.22;1.20;;;5.00;99.90;;;;;;5077737;28;20093;-67
2024/01/31 07:18:08;;;;;;;8.50;0.98;;;5.00;99.90;;;;;;5077676;28;20043;-67
2024/01/31 07:20:34;;;;;;;5.13;0.75;;;5.00;99.90;;;;;;5078667;28;20517;-67
2024/01/31 07:22:59;;;;;;;4.57;0.80;;;5.00;99.90;;;;;;5080314;28;20441;-67
2024/01/31 07:25:25;;;;;;;3.35;0.65;;;4.90;99.90;;;;;;5080824;28;20033;-67
2024/01/31 07:27:50;;;;;;;5.35;1.13;;;5.00;99.90;;;;;;5112728;28;20483;-67
2024/01/31 07:30:16;;;;;;;7.13;0.88;;;5.00;99.90;;;;;;5112613;28;20040;-67
2024/01/31 07:32:42;;;;;;;4.82;0.90;;;5.00;99.90;;;;;;5078018;28;20439;-67
2024/01/31 07:35:07;;;;;;;3.83;0.70;;;5.00;99.90;;;;;;5078206;28;20048;-67
2024/01/31 07:37:38;;;;;;;5.13;0.60;;;5.00;99.90;;;;;;5081020;28;20064;-67
2024/01/31 07:40:09;;;;;;;4.43;0.82;;;5.00;99.90;;;;;;5112107;28;20072;-67
2024/01/31 07:42:35;;;;;;;3.58;0.55;;;5.00;99.90;;;;;;5112115;28;20076;-67
2024/01/31 07:45:02;;;;;;;5.20;0.98;;;5.00;99.90;;;;;;5111902;28;20119;-67
2024/01/31 07:47:28;;;;;;;7.38;1.15;;;5.00;99.90;;;;;;5082853;28;20083;-67
2024/01/31 07:49:54;;;;;;;5.05;0.80;;;5.10;99.90;;;;;;5080405;28;20078;-67
2024/01/31 07:52:19;;;;;;;7.60;0.88;;;5.00;99.90;;;;;;5079178;28;20075;-67
2024/01/31 07:54:45;;;;;;;5.90;1.25;;;5.00;99.90;;;;;;5079743;28;20044;-67
2024/01/31 07:57:10;;;;;;;3.10;1.05;;;5.10;99.90;;;;;;5109910;28;20082;-67
2024/01/31 07:59:36;;;;;;;4.03;0.93;;;5.00;99.90;;;;;;5080541;28;20082;-67
2024/01/31 08:02:02;;;;;;;6.57;1.55;;;5.10;99.90;;;;;;5081962;28;20093;-67
2024/01/31 08:04:27;;;;;;;4.65;0.90;;;5.10;99.90;;;;;;5084395;28;20115;-67
2024/01/31 08:06:54;;;;;;;5.90;1.00;;;5.10;99.90;;;;;;5082832;28;20040;-67
2024/01/31 08:09:22;;;;;;;5.32;1.13;;;5.10;99.90;;;;;;5085730;28;20040;-67
2024/01/31 08:11:48;;;;;;;3.33;1.00;;;5.10;99.90;;;;;;5083765;28;20054;-67
2024/01/31 08:14:13;;;;;;;3.30;1.20;;;5.10;99.90;;;;;;5084719;28;20494;-67
2024/01/31 08:16:39;;;;;;;5.05;2.00;;;5.20;99.90;;;;;;5088796;28;20390;-67
2024/01/31 08:19:05;;;;;;;6.18;2.03;;;5.10;99.90;;;;;;5083437;28;20069;-67
2024/01/31 08:21:33;;;;;;;8.23;1.98;;;5.20;99.90;;;;;;5089399;28;20037;-67
2024/01/31 08:23:59;;;;;;;5.72;1.85;;;5.20;99.90;;;;;;5082356;28;20124;-67
2024/01/31 08:26:25;;;;;;;4.63;2.15;;;5.20;99.90;;;;;;5087126;28;20089;-67
2024/01/31 08:28:51;;;;;;;4.43;2.40;;;5.30;99.90;;;;;;5083052;28;20040;-67
2024/01/31 08:31:16;;;;;;;4.22;1.95;;;5.30;99.90;;;;;;5084825;28;20390;-67
2024/01/31 08:33:43;;;;;;;5.00;2.20;;;5.30;99.90;;;;;;5084569;28;20041;-67
2024/01/31 08:36:09;;;;;;;4.50;1.90;;;5.30;99.90;;;;;;5080189;28;20437;-67
2024/01/31 08:38:37;;;;;;;5.30;1.95;;;5.30;99.90;;;;;;5081574;28;20158;-67
2024/01/31 08:41:03;;;;;;;7.53;2.35;;;5.30;99.90;;;;;;5117981;27;20051;-67
2024/01/31 08:43:28;;;;;;;4.47;2.17;;;5.30;99.90;;;;;;5083300;28;20504;-67
2024/01/31 08:45:54;;;;;;;5.80;1.98;;;5.40;99.90;;;;;;5081234;28;20068;-67
2024/01/31 08:48:20;;;;;;;3.13;1.60;;;5.40;99.90;;;;;;5079603;28;20493;-67
2024/01/31 08:50:45;;;;;;;5.40;1.92;;;5.40;99.90;;;;;;5081735;28;20040;-67
2024/01/31 08:53:12;;;;;;;5.80;1.90;;;5.40;99.90;;;;;;5082782;28;20036;-67
2024/01/31 08:55:38;;;;;;;7.82;2.42;;;5.50;99.90;;;;;;5081224;28;20114;-67
2024/01/31 08:58:03;;;;;;;2.55;1.55;;;5.50;99.90;;;;;;5084020;28;20072;-67
2024/01/31 09:00:29;;;;;;;6.13;2.20;;;5.60;99.90;;;;;;5084529;28;20040;-67
2024/01/31 09:02:55;;;;;;;4.07;1.70;;;5.60;99.90;;;;;;5082112;28;20127;-67
2024/01/31 09:05:21;;;;;;;5.25;2.17;;;5.50;99.90;;;;;;5099071;27;20070;-67
2024/01/31 09:07:47;;;;;;;4.30;2.13;;;5.60;99.90;;;;;;5083921;28;20444;-67
2024/01/31 09:10:12;;;;;;;3.72;2.10;;;5.70;99.90;;;;;;5109776;27;20032;-67
2024/01/31 09:12:38;;;;;;;2.53;1.85;;;5.70;99.90;;;;;;5112190;27;20128;-67
2024/01/31 09:15:04;;;;;;;3.97;1.90;;;5.70;99.90;;;;;;5083212;28;20044;-67
2024/01/31 09:17:29;;;;;;;5.15;2.22;;;5.70;99.90;;;;;;5078744;28;20090;-67
2024/01/31 09:19:55;;;;;;;5.25;2.25;;;5.80;99.90;;;;;;5115536;27;20036;-67
2024/01/31 09:22:20;;;;;;;3.45;1.98;;;5.80;99.90;;;;;;5083081;28;20072;-67
2024/01/31 09:24:46;;;;;;;5.03;2.17;;;5.80;99.90;;;;;;5082072;28;20391;-67
2024/01/31 09:27:12;;;;;;;4.95;2.20;;;5.90;99.90;;;;;;5076417;28;20101;-67
2024/01/31 09:29:37;;;;;;;2.03;1.73;;;5.90;99.90;;;;;;5116130;27;20044;-67
2024/01/31 09:32:03;;;;;;;4.13;2.03;;;6.00;99.90;;;;;;5078663;28;20126;-67
2024/01/31 09:34:29;;;;;;;2.65;1.90;;;6.00;99.90;;;;;;5083779;28;20040;-67
2024/01/31 09:36:55;;;;;;;3.25;2.05;;;6.10;99.90;;;;;;5081669;28;20040;-67
2024/01/31 09:39:20;;;;;;;3.72;2.05;;;6.10;99.90;;;;;;5082422;28;20097;-67
2024/01/31 09:41:48;;;;;;;2.90;2.35;;;6.10;99.90;;;;;;5079735;28;20040;-67
2024/01/31 09:44:15;;;;;;;5.30;2.28;;;6.10;99.90;;;;;;5079431;28;20125;-67
2024/01/31 09:46:42;;;;;;;4.25;2.00;;;6.20;99.90;;;;;;5080193;28;20043;-68
2024/01/31 09:49:07;;;;;;;4.00;2.67;;;6.20;99.90;;;;;;5078893;28;20380;-67
2024/01/31 09:51:33;;;;;;;3.83;2.40;;;6.10;99.90;;;;;;5076991;28;20089;-67
2024/01/31 09:54:00;;;;;;;3.03;2.08;;;6.20;99.90;;;;;;5083351;28;20188;-67
2024/01/31 09:56:31;;;;;;;2.65;2.28;;;6.30;99.90;;;;;;5074915;28;20096;-67
2024/01/31 09:59:00;;;;;;;3.33;2.05;;;6.30;99.90;;;;;;5078971;28;20096;-66
2024/01/31 10:01:26;;;;;;;3.95;2.33;;;6.30;99.90;;;;;;5079744;28;20040;-67
2024/01/31 10:03:52;;;;;;;5.72;2.35;;;6.30;99.90;;;;;;5081756;28;20036;-67
2024/01/31 10:06:19;;;;;;;5.00;2.28;;;6.20;99.90;;;;;;5079741;28;20055;-67
2024/01/31 10:08:46;;;;;;;3.22;2.25;;;6.30;99.90;;;;;;5081020;28;20040;-67
2024/01/31 10:11:12;;;;;;;4.82;2.42;;;6.30;99.90;;;;;;5112156;27;20635;-67
2024/01/31 10:13:38;;;;;;;4.35;2.22;;;6.30;99.90;;;;;;5078071;28;20044;-67
2024/01/31 10:16:04;;;;;;;3.42;2.10;;;6.30;99.90;;;;;;5078473;28;20063;-67
2024/01/31 10:18:30;;;;;;;6.70;3.20;;;6.40;99.90;;;;;;5078709;28;20367;-67
2024/01/31 10:20:57;;;;;;;3.95;2.70;;;6.40;99.90;;;;;;5111968;27;20051;-67
2024/01/31 10:23:23;;;;;;;3.97;2.90;;;6.40;99.90;;;;;;5075460;28;20087;-67
2024/01/31 10:25:50;;;;;;;3.53;2.42;;;6.40;99.90;;;;;;5112233;27;20093;-67
2024/01/31 10:28:19;;;;;;;5.28;2.50;;;6.40;99.90;;;;;;5078722;28;20033;-67
2024/01/31 10:30:46;;;;;;;3.97;2.65;;;6.40;99.90;;;;;;5079218;28;20036;-68
2024/01/31 10:33:12;;;;;;;4.65;3.10;;;6.50;99.90;;;;;;5078238;28;20040;-67
2024/01/31 10:35:40;;;;;;;4.78;2.88;;;6.40;99.90;;;;;;5061610;28;20040;-67
2024/01/31 10:38:07;;;;;;;4.28;2.80;;;6.50;99.90;;;;;;5079177;28;20105;-67
2024/01/31 10:40:34;;;;;;;5.05;3.03;;;6.50;99.90;;;;;;5077303;28;20109;-67
2024/01/31 10:43:05;;;;;;;2.97;2.67;;;6.50;99.90;;;;;;5077685;28;20036;-67
2024/01/31 10:45:33;;;;;;;4.10;3.00;;;6.50;99.90;;;;;;5079639;28;20089;-67
2024/01/31 10:47:59;;;;;;;5.50;3.33;;;6.50;99.90;;;;;;5080951;28;20048;-67
2024/01/31 10:50:24;;;;;;;4.55;2.88;;;6.50;99.90;;;;;;5078936;28;20073;-67
2024/01/31 10:52:53;;;;;;;4.97;3.70;;;6.50;99.90;;;;;;5082052;28;20402;-67
2024/01/31 10:55:21;;;;;;;4.47;3.55;;;6.50;99.90;;;;;;5110440;27;20043;-67
2024/01/31 10:57:48;;;;;;;4.13;2.72;;;6.50;99.90;;;;;;5081048;28;20043;-67
2024/01/31 11:00:30;;;;;;;3.47;3.17;;;6.60;99.90;;;;;;5079674;28;20495;-67
2024/01/31 11:03:00;;;;;;;5.00;3.58;;;6.60;99.90;;;;;;5085333;28;20067;-67
2024/01/31 11:05:29;;;;;;;7.07;3.50;;;6.60;99.90;;;;;;5084702;28;20824;-67
2024/01/31 11:07:55;;;;;;;4.60;3.45;;;6.60;99.90;;;;;;5079247;28;20049;-67
2024/01/31 11:10:22;;;;;;;4.07;3.70;;;6.60;99.90;;;;;;5078294;28;20132;-67
2024/01/31 11:12:59;;;;;;;5.13;2.88;;;6.60;99.90;;;;;;5079959;28;20495;-67
2024/01/31 11:15:33;;;;;;;5.13;3.10;;;6.60;99.90;;;;;;5079355;28;20050;-67
2024/01/31 11:18:11;;;;;;;4.15;3.40;;;6.70;99.90;;;;;;5109112;28;20058;-67
2024/01/31 11:20:50;;;;;;;5.07;3.70;;;6.70;99.90;;;;;;5080464;28;20402;-67
2024/01/31 11:23:17;;;;;;;4.97;3.78;;;6.70;99.90;;;;;;5113065;28;20068;-67
2024/01/31 11:25:46;;;;;;;5.80;3.42;;;6.70;99.90;;;;;;5080820;28;20130;-67
2024/01/31 11:28:13;;;;;;;6.82;4.07;;;6.70;99.90;;;;;;5079624;28;20505;-67
2024/01/31 11:30:39;;;;;;;4.80;3.25;;;7.00;99.90;;;;;;5080002;28;20068;-67
2024/01/31 11:33:05;;;;;;;4.40;4.00;;;6.70;99.90;;;;;;5076925;28;20082;-67
2024/01/31 11:35:32;;;;;;;6.28;4.07;;;6.70;99.90;;;;;;5078566;28;20402;-66
2024/01/31 11:37:58;;;;;;;4.95;4.43;;;6.70;99.90;;;;;;5083043;28;20040;-67
2024/01/31 11:40:25;;;;;;;4.80;4.30;;;6.60;99.90;;;;;;5083304;28;20097;-67
2024/01/31 11:42:54;;;;;;;6.75;4.97;;;6.70;99.90;;;;;;5084430;28;20106;-67
2024/01/31 11:45:26;;;;;;;5.65;4.50;;;6.60;99.90;;;;;;5083477;28;20512;-66
2024/01/31 11:47:56;;;;;;;5.60;5.03;;;6.70;99.90;;;;;;5067052;28;20048;-66
2024/01/31 11:50:23;;;;;;;6.65;5.20;;;6.60;99.90;;;;;;5114640;27;20610;-67
2024/01/31 11:52:50;;;;;;;7.38;4.93;;;6.70;99.90;;;;;;5086308;28;20036;-67
2024/01/31 11:55:25;;;;;;;5.03;4.55;;;6.70;99.90;;;;;;5082702;28;20055;-67
2024/01/31 11:57:51;;;;;;;9.40;4.72;;;6.60;99.90;;;;;;5080962;28;20044;-67
2024/01/31 12:00:18;;;;;;;5.32;4.60;;;6.60;99.90;;;;;;5064949;28;20055;-67
2024/01/31 12:02:44;;;;;;;5.38;4.88;;;6.60;99.90;;;;;;5117218;27;20486;-67
2024/01/31 12:05:10;;;;;;;7.32;4.88;;;6.70;99.90;;;;;;5084063;28;20040;-67
2024/01/31 12:07:36;;;;;;;6.03;5.43;;;6.70;99.90;;;;;;5082455;28;20052;-67
2024/01/31 12:10:03;;;;;;;6.43;5.65;;;6.70;99.90;;;;;;5084664;28;20465;-67
2024/01/31 12:12:30;;;;;;;6.57;5.53;;;6.80;99.90;;;;;;5082056;28;20040;-67
2024/01/31 12:14:56;;;;;;;5.82;5.28;;;6.80;99.90;;;;;;5079592;28;20474;-67
2024/01/31 12:17:26;;;;;;;5.28;4.88;;;6.90;99.90;;;;;;5084499;28;20036;-67
2024/01/31 12:20:04;;;;;;;5.38;4.93;;;6.90;99.90;;;;;;5082734;28;20036;-67
2024/01/31 12:22:33;;;;;;;5.32;4.90;;;6.90;99.90;;;;;;5083199;28;20116;-67
2024/01/31 12:25:01;;;;;;;5.25;4.78;;;6.90;99.90;;;;;;5084018;28;20101;-67
2024/01/31 12:27:27;;;;;;;7.22;4.93;;;6.90;99.90;;;;;;5078647;28;20386;-67
2024/01/31 12:29:52;;;;;;;9.38;5.57;;;6.90;99.90;;;;;;5082836;28;20132;-67
2024/01/31 12:32:18;;;;;;;7.78;5.35;;;6.90;99.90;;;;;;5082287;28;20421;-67
2024/01/31 12:34:43;;;;;;;7.25;5.90;;;7.00;99.90;;;;;;5079724;28;20433;-67
2024/01/31 12:37:09;;;;;;;5.53;5.05;;;7.00;99.90;;;;;;5078762;28;20043;-67
2024/01/31 12:39:37;;;;;;;5.57;5.00;;;6.90;99.90;;;;;;5080807;28;20036;-67
2024/01/31 12:42:04;;;;;;;5.57;4.70;;;7.00;99.90;;;;;;5078115;28;20041;-67
2024/01/31 12:44:30;;;;;;;5.93;5.35;;;7.00;99.90;;;;;;5075855;28;20085;-67
2024/01/31 12:46:56;;;;;;;5.13;4.63;;;7.00;99.90;;;;;;5066495;28;20079;-67
2024/01/31 12:49:21;;;;;;;5.43;4.93;;;7.00;99.90;;;;;;5078667;28;20075;-67
2024/01/31 12:51:48;;;;;;;5.78;5.28;;;7.00;99.90;;;;;;5086305;28;20045;-67
2024/01/31 12:54:14;;;;;;;6.28;5.68;;;7.00;99.90;;;;;;5082617;28;20123;-67